Latest Weather Observations for Sunshine Coast Airport

IDQ60901

Issued at 12:51 am EST Monday 18 November 2019 (issued every 10 minutes, with the page automatically refreshed every 10 minutes)

About weather observations | Map of Brisbane area stations | Latest observations for Brisbane area | Other Formats
Station Details ID: 040861 Name: SUNSHINE COAST AIRPORT Lat: -26.60 Lon: 153.09 Height: 3.42 m
Data from the previous 72 hours. | See also: Recent months at Sunshine Coast Airport
Date/Time
EST
Temp
°C
App
Temp
°C
Dew
Point
°C
Rel
Hum
%
Delta-T
°C
Wind Press
QNH
hPa
Press
MSL
hPa
Rain since
9am
mm
Dir  Spd
km/h
Gust
km/h
Spd
kts
Gust
kts
18/12:30am 22.5 19.8 19.3 82 2.0 SSE 32 43 17 23 1015.2 1015.1 3.6
18/12:27am 22.5 19.9 19.5 83 1.9 SE 32 50 17 27 1015.2 1015.1 3.6
18/12:00am 22.5 19.2 19.3 82 2.0 SSE 35 52 19 28 1015.3 1015.2 3.6
 
Date/Time
EST
Temp
°C
App
Temp
°C
Dew
Point
°C
Rel
Hum
%
Delta-T
°C
Wind Press
QNH
hPa
Press
MSL
hPa
Rain since
9am
mm
Dir  Spd
km/h
Gust
km/h
Spd
kts
Gust
kts
17/11:49pm 22.3 20.2 19.7 85 1.7 SSE 30 48 16 26 1015.1 1015.0 3.6
17/11:33pm 22.3 20.9 19.7 85 1.7 SSW 26 39 14 21 1014.6 1014.6 3.6
17/11:30pm 22.3 21.7 19.7 85 1.7 SW 22 39 12 21 1014.5 1014.5 3.6
17/11:00pm 22.4 22.7 20.3 88 1.4 SW 19 24 10 13 1014.3 1014.3 3.6
17/10:30pm 21.3 23.5 20.5 95 0.5 W 9 15 5 8 1013.8 1013.8 3.6
17/10:00pm 20.5 21.8 19.3 93 0.8 NNW 11 15 6 8 1012.9 1012.9 3.6
17/09:30pm 20.7 22.8 19.4 92 0.8 NW 7 11 4 6 1012.9 1012.9 3.6
17/09:00pm 20.9 22.2 19.2 90 1.1 NW 11 13 6 7 1012.6 1012.6 3.6
17/08:30pm 21.2 22.2 19.5 90 1.1 NNW 13 17 7 9 1012.2 1012.2 3.6
17/08:00pm 20.9 22.0 19.6 92 0.8 NW 13 17 7 9 1012.3 1012.3 3.6
17/07:30pm 20.8 22.0 19.1 90 1.1 NNW 11 13 6 7 1012.1 1012.1 3.6
17/07:00pm 21.1 21.9 19.0 88 1.3 N 13 17 7 9 1011.6 1011.6 3.6
17/06:30pm 21.5 21.9 19.1 86 1.5 NNW 15 20 8 11 1011.1 1011.1 3.6
17/06:00pm 22.0 22.4 19.0 83 1.9 NNW 15 20 8 11 1010.4 1010.4 3.6
17/05:30pm 22.0 20.7 19.0 83 1.9 N 24 37 13 20 1009.5 1009.5 3.6
17/05:00pm 22.8 21.4 18.8 78 2.5 NNE 24 35 13 19 1008.7 1008.7 3.6
17/04:30pm 22.0 17.7 18.6 81 2.1 NNE 39 52 21 28 1008.9 1008.9 3.6
17/04:05pm 21.2 15.4 18.2 83 1.9 NE 46 69 25 37 1008.0 1008.0 3.6
17/04:00pm 21.5 15.7 19.1 86 1.5 NE 48 65 26 35 1007.6 1007.6 3.6
17/03:34pm 22.6 18.6 18.4 77 2.6 NE 37 59 20 32 1007.0 1007.0 3.6
17/03:30pm 21.2 16.0 18.9 87 1.4 NE 44 61 24 33 1007.5 1007.5 3.6
17/03:25pm 21.4 14.7 18.8 85 1.6 ENE 52 67 28 36 1007.4 1007.4 3.6
17/03:17pm 20.8 15.7 18.7 88 1.3 E 43 63 23 34 1006.4 1006.4 3.6
17/03:14pm 20.7 15.9 18.5 87 1.4 E 41 61 22 33 1006.4 1006.4 3.6
17/03:12pm 20.8 16.5 18.6 87 1.4 E 39 57 21 31 1006.9 1006.9 3.6
17/03:10pm 20.9 17.0 18.7 87 1.4 E 37 50 20 27 1007.3 1007.3 3.6
17/03:00pm 21.7 19.1 19.8 89 1.2 ESE 33 50 18 27 1008.3 1008.3 3.6
17/02:55pm 22.8 21.5 20.7 88 1.4 SSE 28 50 15 27 1008.4 1008.4 3.0
17/02:30pm 24.1 21.5 18.7 72 3.4 SE 30 48 16 26 1008.4 1008.4 0.0
17/02:28pm 24.6 22.8 18.8 70 3.7 ESE 26 46 14 25 1007.9 1007.9 0.0
17/02:00pm 25.6 23.2 20.4 73 3.4 NNE 33 44 18 24 1007.5 1007.5 0.0
17/01:30pm 27.3 25.9 22.0 73 3.6 NE 32 41 17 22 1008.0 1008.0 0.0
17/01:00pm 27.8 26.6 22.7 74 3.5 NNE 33 41 18 22 1008.3 1008.3 0.0
17/12:30pm 26.9 26.8 22.3 76 3.1 NE 26 33 14 18 1010.0 1010.0 0.0
17/12:00pm 26.8 27.2 21.8 74 3.3 NE 22 28 12 15 1010.9 1010.9 0.0
17/11:30am 26.7 27.4 21.5 73 3.5 ENE 20 26 11 14 1011.5 1011.5 0.0
17/11:00am 26.1 26.7 21.1 74 3.3 ENE 19 22 10 12 1012.1 1012.1 0.0
17/10:30am 25.9 26.8 21.6 77 2.9 E 19 20 10 11 1012.7 1012.7 0.0
17/10:00am 25.4 26.0 21.1 77 2.8 ENE 19 22 10 12 1013.2 1013.2 0.0
17/09:30am 25.4 27.4 21.5 79 2.6 E 13 17 7 9 1013.6 1013.6 0.0
17/09:00am 24.9 26.2 20.8 78 2.7 ENE 15 17 8 9 1013.8 1013.8 17.8
17/08:30am 25.0 26.2 20.7 77 2.8 E 15 17 8 9 1014.0 1014.0 17.8
17/08:00am 24.8 26.2 20.3 76 2.9 ESE 13 15 7 8 1014.2 1014.2 17.8
17/07:30am 24.8 26.8 20.7 78 2.7 E 11 13 6 7 1014.2 1014.2 17.8
17/07:20am 24.4 26.9 20.3 78 2.7 ESE 7 11 4 6 1014.3 1014.3 17.8
17/07:00am 23.3 26.0 20.2 83 2.0 SSW 6 9 3 5 1014.3 1014.3 17.8
17/06:30am 22.2 24.9 20.7 91 1.0 WSW 7 9 4 5 1014.2 1014.2 17.8
17/06:14am 21.5 24.1 20.5 94 0.6 WSW 7 9 4 5 1014.1 1014.1 17.8
17/06:00am 21.4 25.4 20.6 95 0.5 CALM 0 2 0 1 1014.2 1014.2 17.8
17/05:30am 20.7 22.9 19.5 93 0.8 WSW 7 9 4 5 1014.0 1014.0 17.8
17/05:24am 20.5 22.7 19.2 92 0.8 WSW 6 7 3 4 1014.0 1014.0 17.8
17/05:00am 21.1 23.1 19.9 93 0.8 WSW 9 11 5 6 1013.7 1013.7 17.8
17/04:58am 21.1 23.1 19.9 93 0.8 WSW 9 11 5 6 1013.7 1013.7 17.8
17/04:41am 21.1 23.2 20.1 94 0.6 WSW 9 11 5 6 1013.5 1013.5 17.8
17/04:38am 21.1 23.2 20.1 94 0.6 WSW 9 11 5 6 1013.5 1013.5 17.8
17/04:30am 21.1 22.8 20.1 94 0.6 WSW 11 13 6 7 1013.4 1013.4 17.8
17/04:00am 21.1 23.2 20.1 94 0.6 SW 9 13 5 7 1013.1 1013.1 17.8
17/03:39am 21.0 23.3 19.8 93 0.8 SW 7 9 4 5 1012.8 1012.8 17.8
17/03:30am 21.0 22.9 19.8 93 0.8 SW 9 9 5 5 1012.8 1012.8 17.8
17/03:00am 21.3 23.0 20.1 93 0.8 SSW 11 15 6 8 1012.7 1012.7 17.8
17/02:30am 20.8 23.0 19.5 92 0.8 WSW 7 11 4 6 1012.9 1012.9 17.8
17/02:24am 20.6 22.7 19.3 92 0.8 WSW 7 9 4 5 1012.9 1012.9 17.8
17/02:00am 20.5 23.3 18.8 90 1.1 WSW 2 7 1 4 1012.8 1012.8 17.8
17/01:30am 20.6 22.0 18.7 89 1.2 W 9 11 5 6 1013.1 1013.1 17.8
17/01:00am 20.9 22.7 18.7 87 1.4 SSW 7 9 4 5 1013.2 1013.2 17.8
17/12:30am 21.5 23.3 18.3 82 2.0 SE 6 7 3 4 1013.5 1013.5 17.8
17/12:00am 22.4 23.3 18.4 78 2.5 S 11 17 6 9 1013.9 1013.9 17.8
 
Date/Time
EST
Temp
°C
App
Temp
°C
Dew
Point
°C
Rel
Hum
%
Delta-T
°C
Wind Press
QNH
hPa
Press
MSL
hPa
Rain since
9am
mm
Dir  Spd
km/h
Gust
km/h
Spd
kts
Gust
kts
16/11:30pm 22.8 23.7 19.2 80 2.3 SSW 13 19 7 10 1014.2 1014.2 17.8
16/11:00pm 22.4 22.0 19.4 83 1.9 SW 20 24 11 13 1014.1 1014.1 17.8
16/10:30pm 22.4 21.4 19.6 84 1.8 NW 24 37 13 20 1012.8 1012.8 17.8
16/10:00pm 22.6 21.6 19.6 83 1.9 NNW 24 39 13 21 1012.5 1012.5 17.8
16/09:30pm 22.2 21.4 19.2 83 1.9 NNW 22 32 12 17 1012.4 1012.4 17.8
16/09:00pm 22.7 22.1 19.7 83 1.9 NW 22 37 12 20 1012.3 1012.3 17.8
16/08:30pm 23.1 22.7 20.1 83 1.9 NNW 22 33 12 18 1012.3 1012.3 17.8
16/08:14pm 24.0 21.6 19.9 78 2.6 NNE 32 41 17 22 1011.6 1011.6 17.8
16/08:00pm 24.0 20.5 21.1 84 1.9 NE 41 52 22 28 1011.2 1011.2 17.8
16/07:30pm 23.6 19.2 21.3 87 1.5 ENE 46 59 25 32 1010.9 1010.9 17.8
16/07:18pm 23.5 21.1 21.0 86 1.6 NE 35 56 19 30 1011.3 1011.3 17.6
16/07:12pm 23.5 23.9 21.0 86 1.6 NE 20 37 11 20 1012.9 1012.9 17.6
16/07:00pm 23.5 26.0 20.2 82 2.1 ENE 7 11 4 6 1014.1 1014.1 17.4
16/06:40pm 23.5 23.8 19.6 79 2.5 SW 17 24 9 13 1014.1 1014.1 17.4
16/06:30pm 23.8 24.0 20.1 80 2.4 SW 19 28 10 15 1014.5 1014.5 17.4
16/06:29pm 23.9 24.2 20.4 81 2.3 SW 19 24 10 13 1014.5 1014.5 17.4
16/06:16pm 23.9 24.4 20.8 83 2.0 NW 19 33 10 18 1013.6 1013.6 17.4
16/06:00pm 24.3 23.6 21.0 82 2.2 NNE 26 33 14 18 1011.6 1011.6 17.4
16/05:30pm 24.4 21.3 19.7 75 3.0 NE 35 48 19 26 1009.7 1009.7 17.4
16/05:11pm 24.4 20.3 19.2 73 3.3 NE 39 50 21 27 1009.8 1009.8 17.4
16/05:00pm 23.0 19.8 18.5 76 2.8 ENE 33 52 18 28 1009.8 1009.8 17.4
16/04:57pm 23.1 20.0 18.4 75 3.0 ENE 32 50 17 27 1010.0 1010.0 17.4
16/04:51pm 21.9 18.4 17.9 78 2.5 ENE 33 46 18 25 1010.3 1010.3 17.4
16/04:41pm 21.7 19.8 19.4 87 1.5 E 28 46 15 25 1010.3 1010.3 17.4
16/04:30pm 21.2 19.8 18.9 87 1.4 SE 24 48 13 26 1010.4 1010.4 16.8
16/04:27pm 21.1 20.6 18.7 86 1.5 S 19 48 10 26 1010.3 1010.3 15.8
16/04:16pm 21.4 18.7 17.6 79 2.3 SSW 28 48 15 26 1012.3 1012.3 2.8
16/04:15pm 21.6 18.6 17.8 79 2.4 SSW 30 48 16 26 1012.2 1012.2 2.4
16/04:11pm 22.7 18.9 17.2 71 3.4 S 33 48 18 26 1011.8 1011.8 0.2
16/04:00pm 27.8 24.6 18.5 57 6.0 S 33 61 18 33 1011.0 1011.0 0.0
16/03:50pm 28.0 27.8 20.6 64 4.9 SSW 22 50 12 27 1010.1 1010.1 0.0
16/03:41pm 26.1 26.1 20.9 73 3.4 E 22 41 12 22 1010.8 1010.8 0.0
16/03:30pm 25.6 23.0 20.6 74 3.3 NNE 35 43 19 23 1008.8 1008.8 0.0
16/03:00pm 27.3 24.4 21.6 71 3.8 NNE 39 50 21 27 1008.7 1008.7 0.0
16/02:30pm 26.7 24.4 21.2 72 3.6 NNE 35 46 19 25 1009.6 1009.6 0.0
16/02:17pm 27.8 25.7 21.6 69 4.1 NNE 35 54 19 29 1009.4 1009.4 0.0
16/02:00pm 26.1 23.6 20.9 73 3.4 NNE 35 44 19 24 1009.7 1009.7 0.0
16/01:30pm 28.8 26.8 21.8 66 4.7 NNE 35 46 19 25 1010.0 1010.0 0.0
16/01:23pm 29.2 27.5 22.4 66 4.6 NNE 35 54 19 29 1010.3 1010.3 0.0
16/01:00pm 28.1 25.5 21.4 67 4.5 NNE 37 48 20 26 1010.6 1010.6 0.0
16/12:30pm 28.5 26.6 21.3 65 4.8 NNE 33 41 18 22 1011.3 1011.3 0.0
16/12:00pm 28.7 26.9 21.5 65 4.8 NNE 33 43 18 23 1011.6 1011.6 0.0
16/11:30am 28.5 26.8 21.3 65 4.8 NNE 32 41 17 22 1012.0 1012.0 0.0
16/11:00am 28.4 27.6 20.9 64 5.0 NE 26 33 14 18 1012.5 1012.5 0.0
16/10:30am 32.4 33.5 19.6 46 8.4 NNW 13 24 7 13 1013.0 1013.0 0.0
16/10:00am 32.2 32.0 18.4 44 8.9 NW 17 26 9 14 1013.2 1013.2 0.0
16/09:30am 30.8 30.5 19.2 50 7.6 NW 19 28 10 15 1013.5 1013.5 0.0
16/09:00am 29.1 28.7 18.8 53 6.6 NW 19 24 10 13 1013.8 1013.8 0.0
16/08:30am 27.5 28.3 19.8 63 5.0 NNW 15 24 8 13 1013.8 1013.8 0.0
16/08:00am 26.6 26.6 20.2 68 4.2 NW 20 28 11 15 1013.9 1013.9 0.0
16/07:30am 25.5 26.1 20.3 73 3.4 NW 17 22 9 12 1013.9 1013.9 0.0
16/07:00am 24.2 25.1 20.1 78 2.7 NNW 15 22 8 12 1013.8 1013.8 0.0
16/06:30am 22.7 23.9 19.9 84 1.8 NNW 13 19 7 10 1013.9 1013.9 0.0
16/06:00am 21.2 22.8 20.0 93 0.8 N 11 13 6 7 1013.6 1013.6 0.0
16/05:30am 20.1 21.4 19.3 95 0.5 N 11 13 6 7 1013.4 1013.4 0.0
16/05:00am 18.9 19.5 17.7 93 0.7 N 11 15 6 8 1013.2 1013.2 0.0
16/04:30am 19.2 19.9 17.9 92 0.8 NNW 11 13 6 7 1013.1 1013.1 0.0
16/04:00am 19.5 20.2 18.0 91 0.9 N 11 15 6 8 1013.0 1013.0 0.0
16/03:30am 19.6 20.4 18.1 91 0.9 N 11 13 6 7 1012.8 1012.8 0.0
16/03:00am 19.7 20.8 18.0 90 1.0 N 9 11 5 6 1012.7 1012.7 0.0
16/02:30am 20.0 20.8 18.1 89 1.2 N 11 13 6 7 1012.7 1012.7 0.0
16/02:00am 20.4 21.3 18.3 88 1.3 N 11 13 6 7 1012.7 1012.7 0.0
16/01:30am 20.8 21.8 18.6 87 1.4 N 11 15 6 8 1012.7 1012.7 0.0
16/01:00am 21.1 22.4 18.5 85 1.6 N 9 13 5 7 1012.9 1012.9 0.0
16/12:30am 21.4 22.4 18.6 84 1.8 N 11 15 6 8 1013.1 1013.1 0.0
16/12:00am 21.6 21.7 18.4 82 2.0 N 15 19 8 10 1013.3 1013.3 0.0
 
Date/Time
EST
Temp
°C
App
Temp
°C
Dew
Point
°C
Rel
Hum
%
Delta-T
°C
Wind Press
QNH
hPa
Press
MSL
hPa
Rain since
9am
mm
Dir  Spd
km/h
Gust
km/h
Spd
kts
Gust
kts
15/11:30pm 22.0 22.2 18.6 81 2.1 N 15 20 8 11 1013.5 1013.5 0.0
15/11:00pm 22.0 22.5 18.4 80 2.3 N 13 19 7 10 1013.8 1013.8 0.0
15/10:30pm 21.8 22.1 18.0 79 2.4 N 13 17 7 9 1013.8 1013.8 0.0
15/10:00pm 22.4 21.4 18.0 76 2.7 NNW 20 28 11 15 1013.6 1013.6 0.0
15/09:30pm 22.6 21.9 18.2 76 2.8 NNW 19 24 10 13 1013.1 1013.1 0.0
15/09:00pm 22.7 22.0 18.3 76 2.8 NNW 19 26 10 14 1013.2 1013.2 0.0
15/08:30pm 22.9 23.2 18.0 74 3.1 NNW 13 20 7 11 1013.1 1013.1 0.0
15/08:00pm 23.7 23.5 18.6 73 3.2 NNW 17 22 9 12 1012.5 1012.5 0.0
15/07:30pm 24.4 23.0 18.8 71 3.6 N 24 32 13 17 1012.0 1012.0 0.0
15/07:00pm 24.5 22.8 18.2 68 4.0 N 24 37 13 20 1011.8 1011.8 0.0
15/06:30pm 24.6 23.8 18.5 69 3.9 N 20 32 11 17 1011.4 1011.4 0.0
15/06:00pm 24.3 23.7 20.6 80 2.4 N 24 33 13 18 1011.2 1011.2 0.0
15/05:30pm 24.6 22.8 20.3 77 2.8 N 30 41 16 22 1010.7 1010.7 0.0
15/05:00pm 25.1 23.2 20.1 74 3.2 N 30 44 16 24 1010.1 1010.1 0.0
15/04:30pm 25.7 22.9 20.3 72 3.5 NNE 35 50 19 27 1009.8 1009.8 0.0
15/04:00pm 26.0 22.8 20.3 71 3.7 NNE 37 50 20 27 1009.8 1009.8 0.0
15/03:30pm 26.5 24.4 21.0 72 3.6 NNE 33 44 18 24 1009.9 1009.9 0.0
15/03:00pm 26.8 24.9 21.3 72 3.7 NNE 33 43 18 23 1009.9 1009.9 0.0
15/02:30pm 27.1 24.8 21.2 70 3.9 NNE 35 44 19 24 1010.0 1010.0 0.0
15/02:00pm 27.0 24.8 21.5 72 3.7 NNE 35 43 19 23 1010.5 1010.5 0.0
15/01:30pm 27.2 25.7 21.7 72 3.7 NE 32 37 17 20 1011.1 1011.1 0.0
15/01:00pm 26.9 25.3 21.9 74 3.3 NE 33 41 18 22 1011.6 1011.6 0.0
15/12:30pm 26.7 25.6 21.7 74 3.3 NE 30 37 16 20 1012.1 1012.1 0.0
15/12:00pm 27.4 26.9 22.1 73 3.6 NE 28 33 15 18 1012.4 1012.4 0.0
15/11:30am 27.4 27.8 22.4 74 3.4 NE 24 30 13 16 1013.0 1013.0 0.0
15/11:00am 27.3 28.0 22.3 74 3.4 NE 22 28 12 15 1013.5 1013.5 0.0
15/10:30am 26.9 27.6 21.6 72 3.5 NE 20 24 11 13 1014.0 1014.0 0.0
15/10:00am 25.6 26.1 20.8 75 3.2 NE 19 24 10 13 1014.4 1014.4 0.0
15/09:30am 26.2 27.5 21.6 76 3.1 ENE 17 20 9 11 1014.6 1014.6 0.0
15/09:00am 26.0 27.4 21.0 74 3.3 ENE 15 17 8 9 1014.8 1014.8 0.0
15/08:39am 25.1 26.7 20.8 77 2.8 ENE 13 17 7 9 1014.8 1014.8 0.0
15/08:30am 24.9 26.8 20.6 77 2.8 NE 11 17 6 9 1015.0 1014.9 0.0
15/08:20am 24.9 27.0 21.0 79 2.6 ENE 11 15 6 8 1014.8 1014.8 0.0
15/08:01am 25.0 26.6 20.0 74 3.2 NW 11 17 6 9 1015.0 1014.9 0.0
15/08:00am 24.9 26.5 19.9 74 3.2 NW 11 17 6 9 1015.0 1014.9 0.0
15/07:30am 24.0 26.7 20.7 82 2.2 NW 7 11 4 6 1015.0 1014.9 0.0
15/07:02am 22.7 25.5 20.8 89 1.2 WNW 7 9 4 5 1014.8 1014.8 0.0
15/07:00am 22.6 25.4 20.9 90 1.1 WNW 7 9 4 5 1014.8 1014.8 0.0
15/06:30am 20.8 20.6 13.5 63 4.2 WNW 7 9 4 5 1014.6 1014.6 0.0
15/06:02am 20.1 21.2 14.5 70 3.3 WNW 2 7 1 4 1014.5 1014.5 0.0
15/06:00am 20.2 23.5 19.9 98 0.2 WNW 2 7 1 4 1014.4 1014.4 0.0
15/05:31am 19.3 20.3 18.6 96 0.4 NW 11 17 6 9 1014.1 1014.1 0.0
15/05:30am 19.3 19.9 18.6 96 0.4 NW 13 17 7 9 1014.1 1014.1 0.0
15/05:00am 18.4 20.9 17.2 93 0.7 CALM 0 6 0 3 1013.5 1013.5 0.0
15/04:30am 18.2 18.8 16.9 92 0.8 NW 9 11 5 6 1013.1 1013.1 0.0
15/04:20am 18.3 20.7 17.1 93 0.7 CALM 0 6 0 3 1013.1 1013.1 0.0
15/04:00am 19.4 21.2 18.4 94 0.6 WSW 6 7 3 4 1012.9 1012.9 0.0
15/03:30am 19.6 21.3 18.6 94 0.6 WNW 7 9 4 5 1012.9 1012.9 0.0
15/03:05am 19.1 21.0 17.6 91 0.9 WNW 4 7 2 4 1013.1 1013.1 0.0
15/03:00am 19.0 20.3 17.5 91 0.9 WNW 7 9 4 5 1013.1 1013.1 0.0
15/02:42am 18.8 19.9 17.1 90 1.0 WNW 7 7 4 4 1013.2 1013.2 0.0
15/02:30am 19.2 20.4 17.3 89 1.2 WNW 7 9 4 5 1013.2 1013.2 0.0
15/02:00am 20.0 21.6 17.8 87 1.4 WSW 6 7 3 4 1013.1 1013.1 0.0
15/01:30am 20.7 22.6 18.6 88 1.3 W 6 9 3 5 1013.3 1013.3 0.0
15/01:00am 20.5 21.9 18.6 89 1.2 NW 9 11 5 6 1013.5 1013.5 0.0

Latest Capital City Observations: Canberra | Sydney | Melbourne | Brisbane | Adelaide | Perth | Hobart | Darwin

Other formats

Comma delimited format used in spreadsheet applications
http://www.bom.gov.au/fwo/IDQ60901/IDQ60901.94569.axf

JavaScript Object Notation format (JSON) in row-major order
http://www.bom.gov.au/fwo/IDQ60901/IDQ60901.94569.json

Data quality

Most of these data are generated automatically and are frequently updated. Quality checks on data are not normally performed. It is possible for incorrect values to appear. Refer to information at About Latest Weather Observations and please check the disclaimer before using these data.